Time;durP1;ratioP1;P1;durP2;ratioP2;P2;SDS_P1;SDS_P2;PMS_P1;PMS_P2;Temp;Humidity;BMP_temperature;BMP_pressure;BME280_temperature;BME280_humidity;BME280_pressure;Samples;Min_cycle;Max_cycle;Signal;HPM_P1;HPM_P2
2024/04/30 00:00:59;;;;;;;;;;;;;;;;;;5303945;26;20268;-70
2024/04/30 00:03:28;;;;;;;;;;;;;;;;;;5302353;27;19962;-70
2024/04/30 00:05:54;;;;;;;;;;;;;;;;;;5305690;27;19930;-70
2024/04/30 00:08:24;;;;;;;;;;;;;;;;;;5305085;27;20021;-70
2024/04/30 00:10:50;;;;;;;;;;;;;;;;;;5283434;27;19985;-70
2024/04/30 00:13:19;;;;;;;;;;;;;;;;;;5289288;26;19939;-69
2024/04/30 00:15:45;;;;;;;;;;;;;;;;;;5304452;26;19930;-70
2024/04/30 00:18:14;;;;;;;;;;;;;;;;;;5304957;26;20382;-70
2024/04/30 00:20:40;;;;;;;;;;;;;;;;;;5303803;27;20326;-70
2024/04/30 00:23:08;;;;;;;;;;;;;;;;;;5304794;26;19930;-70
2024/04/30 00:25:34;;;;;;;;;;;;;;;;;;5305630;26;20277;-70
2024/04/30 00:28:03;;;;;;;;;;;;;;;;;;5307203;27;20033;-70
2024/04/30 00:30:29;;;;;;;;;;;;;;;;;;5301048;27;19931;-71
2024/04/30 00:32:58;;;;;;;;;;;;;;;;;;5304672;27;19930;-70
2024/04/30 00:35:24;;;;;;;;;;;;;;;;;;5307903;27;19954;-69
2024/04/30 00:37:53;;;;;;;;;;;;;;;;;;5308761;27;20077;-70
2024/04/30 00:40:19;;;;;;;;;;;;;;;;;;5306142;27;20413;-70
2024/04/30 00:42:47;;;;;;;;;;;;;;;;;;5306561;26;21221;-70
2024/04/30 00:45:13;;;;;;;;;;;;;;;;;;5307618;27;19931;-70
2024/04/30 00:47:42;;;;;;;;;;;;;;;;;;5306459;27;19931;-70
2024/04/30 00:50:08;;;;;;;;;;;;;;;;;;5301390;27;19938;-70
2024/04/30 00:52:37;;;;;;;;;;;;;;;;;;5301434;27;20041;-70
2024/04/30 00:55:03;;;;;;;;;;;;;;;;;;5304324;27;20274;-70
2024/04/30 00:57:32;;;;;;;;;;;;;;;;;;5307629;26;19996;-70
2024/04/30 00:59:58;;;;;;;;;;;;;;;;;;5307185;27;19938;-69
2024/04/30 01:02:27;;;;;;;;;;;;;;;;;;5300620;27;19931;-70
2024/04/30 01:04:53;;;;;;;;;;;;;;;;;;5307716;27;19937;-70
2024/04/30 01:07:22;;;;;;;;;;;;;;;;;;5303418;27;22351;-70
2024/04/30 01:09:48;;;;;;;;;;;;;;;;;;5305641;27;19938;-69
2024/04/30 01:12:16;;;;;;;;;;;;;;;;;;5306837;27;20289;-70
2024/04/30 01:14:42;;;;;;;;;;;;;;;;;;5307608;26;19930;-70
2024/04/30 01:17:11;;;;;;;;;;;;;;;;;;5305692;26;19942;-70
2024/04/30 01:19:37;;;;;;;;;;;;;;;;;;5295795;27;19930;-70
2024/04/30 01:22:06;;;;;;;;;;;;;;;;;;5304023;26;20369;-70
2024/04/30 01:24:32;;;;;;;;;;;;;;;;;;5307485;27;19934;-70
2024/04/30 01:27:01;;;;;;;;;;;;;;;;;;5304504;27;19931;-70
2024/04/30 01:29:27;;;;;;;;;;;;;;;;;;5303982;27;19938;-68
2024/04/30 01:31:56;;;;;;;;;;;;;;;;;;5306161;27;19931;-71
2024/04/30 01:34:22;;;;;;;;;;;;;;;;;;5305090;27;19999;-71
2024/04/30 01:36:51;;;;;;;;;;;;;;;;;;5305243;27;19935;-70
2024/04/30 01:39:17;;;;;;;;;;;;;;;;;;5306671;27;20361;-71
2024/04/30 01:41:45;;;;;;;;;;;;;;;;;;5303882;27;20022;-71
2024/04/30 01:44:11;;;;;;;;;;;;;;;;;;5307031;27;20246;-71
2024/04/30 01:46:40;;;;;;;;;;;;;;;;;;5303478;27;20001;-72
2024/04/30 01:49:06;;;;;;;;;;;;;;;;;;5303172;27;20000;-71
2024/04/30 01:51:35;;;;;;;;;;;;;;;;;;5305258;27;19959;-72
2024/04/30 01:54:01;;;;;;;;;;;;;;;;;;5307016;27;19931;-71
2024/04/30 01:56:30;;;;;;;;;;;;;;;;;;5307312;27;20001;-71
2024/04/30 01:58:56;;;;;;;;;;;;;;;;;;5305635;27;19931;-71
2024/04/30 02:01:24;;;;;;;;;;;;;;;;;;5306613;27;19999;-71
2024/04/30 02:03:50;;;;;;;;;;;;;;;;;;5300852;26;19931;-71
2024/04/30 02:06:19;;;;;;;;;;;;;;;;;;5306095;26;19930;-72
2024/04/30 02:08:45;;;;;;;;;;;;;;;;;;5304829;26;19966;-71
2024/04/30 02:11:14;;;;;;;;;;;;;;;;;;5307656;27;20250;-71
2024/04/30 02:13:40;;;;;;;;;;;;;;;;;;5306485;27;20369;-72
2024/04/30 02:16:09;;;;;;;;;;;;;;;;;;5305517;27;19931;-71
2024/04/30 02:18:35;;;;;;;;;;;;;;;;;;5303908;27;20054;-71
2024/04/30 02:21:04;;;;;;;;;;;;;;;;;;5304739;26;19941;-71
2024/04/30 02:23:30;;;;;;;;;;;;;;;;;;5290202;26;20434;-71
2024/04/30 02:26:01;;;;;;;;;;;;;;;;;;5306154;27;19947;-71
2024/04/30 02:28:27;;;;;;;;;;;;;;;;;;5300535;27;19935;-72
2024/04/30 02:36:25;;;;;;;;;;;;;;;;;;5304111;27;19937;-71
2024/04/30 02:38:54;;;;;;;;;;;;;;;;;;5294598;26;19934;-72
2024/04/30 02:41:23;;;;;;;;;;;;;;;;;;5303838;27;19931;-71
2024/04/30 02:43:52;;;;;;;;;;;;;;;;;;5303691;27;19941;-72
2024/04/30 02:46:18;;;;;;;;;;;;;;;;;;5303793;26;19931;-71
2024/04/30 02:48:46;;;;;;;;;;;;;;;;;;5301351;27;19939;-72
2024/04/30 02:51:12;;;;;;;;;;;;;;;;;;5301435;27;19938;-71
2024/04/30 02:53:41;;;;;;;;;;;;;;;;;;5304025;27;19974;-72
2024/04/30 02:56:07;;;;;;;;;;;;;;;;;;5298901;27;19981;-71
2024/04/30 02:58:36;;;;;;;;;;;;;;;;;;5303993;27;19931;-70
2024/04/30 03:01:02;;;;;;;;;;;;;;;;;;5304986;26;19930;-71
2024/04/30 03:03:31;;;;;;;;;;;;;;;;;;5304447;27;19946;-71
2024/04/30 03:05:57;;;;;;;;;;;;;;;;;;5305945;26;19938;-71
2024/04/30 03:08:26;;;;;;;;;;;;;;;;;;5303449;27;19999;-71
2024/04/30 03:10:52;;;;;;;;;;;;;;;;;;5305611;27;20020;-71
2024/04/30 03:13:20;;;;;;;;;;;;;;;;;;5306087;27;19954;-71
2024/04/30 03:15:46;;;;;;;;;;;;;;;;;;5303266;27;19930;-71
2024/04/30 03:18:15;;;;;;;;;;;;;;;;;;5304638;26;20026;-71
2024/04/30 03:20:41;;;;;;;;;;;;;;;;;;5305717;26;19938;-72
2024/04/30 03:23:10;;;;;;;;;;;;;;;;;;5303007;27;19938;-72
2024/04/30 03:25:36;;;;;;;;;;;;;;;;;;5292058;27;22041;-72
2024/04/30 03:28:05;;;;;;;;;;;;;;;;;;5304871;27;20000;-72
2024/04/30 03:30:31;;;;;;;;;;;;;;;;;;5303973;27;19938;-72
2024/04/30 03:33:00;;;;;;;;;;;;;;;;;;5303709;26;19983;-72
2024/04/30 03:35:26;;;;;;;;;;;;;;;;;;5299896;26;19938;-72
2024/04/30 03:37:54;;;;;;;;;;;;;;;;;;5301382;26;19997;-72
2024/04/30 03:40:23;;;;;;;;;;;;;;;;;;5304635;27;20369;-72
2024/04/30 03:42:52;;;;;;;;;;;;;;;;;;5302782;27;19938;-72
2024/04/30 03:45:20;;;;;;;;;;;;;;;;;;5305059;27;19938;-72
2024/04/30 03:47:49;;;;;;;;;;;;;;;;;;5302254;27;19931;-72
2024/04/30 03:50:15;;;;;;;;;;;;;;;;;;5305187;27;19942;-72
2024/04/30 03:52:44;;;;;;;;;;;;;;;;;;5300660;27;19930;-74
2024/04/30 03:55:10;;;;;;;;;;;;;;;;;;5304758;27;19930;-73
2024/04/30 03:57:39;;;;;;;;;;;;;;;;;;5305772;27;19955;-72
2024/04/30 04:00:05;;;;;;;;;;;;;;;;;;5300869;27;19931;-73
2024/04/30 04:02:34;;;;;;;;;;;;;;;;;;5300918;27;20462;-72
2024/04/30 04:05:00;;;;;;;;;;;;;;;;;;5303682;26;20458;-69
2024/04/30 04:07:29;;;;;;;;;;;;;;;;;;5302714;27;20393;-69
2024/04/30 04:09:55;;;;;;;;;;;;;;;;;;5298157;26;20505;-69
2024/04/30 04:15:08;;;;;;;;;;;;;;;;;;5306896;27;19963;-69
2024/04/30 04:17:37;;;;;;;;;;;;;;;;;;5303646;26;19946;-67
2024/04/30 04:20:05;;;;;;;;;;;;;;;;;;5302120;26;19935;-68
2024/04/30 04:22:32;;;;;;;;;;;;;;;;;;5304814;27;20472;-68
2024/04/30 04:25:00;;;;;;;;;;;;;;;;;;5303252;27;19937;-69
2024/04/30 04:27:26;;;;;;;;;;;;;;;;;;5302184;27;19942;-69
2024/04/30 04:29:55;;;;;;;;;;;;;;;;;;5298592;27;19938;-69
2024/04/30 04:32:21;;;;;;;;;;;;;;;;;;5304224;26;20389;-68
2024/04/30 04:34:50;;;;;;;;;;;;;;;;;;5295809;27;19938;-69
2024/04/30 04:37:16;;;;;;;;;;;;;;;;;;5297724;27;19935;-71
2024/04/30 04:39:45;;;;;;;;;;;;;;;;;;5292204;27;19946;-69
2024/04/30 04:42:11;;;;;;;;;;;;;;;;;;5302812;26;19945;-69
2024/04/30 04:44:39;;;;;;;;;;;;;;;;;;5301823;27;19930;-69
2024/04/30 04:47:05;;;;;;;;;;;;;;;;;;5300440;26;19938;-69
2024/04/30 04:49:34;;;;;;;;;;;;;;;;;;5300529;27;20490;-69
2024/04/30 04:52:00;;;;;;;;;;;;;;;;;;5300200;26;19942;-68
2024/04/30 04:54:29;;;;;;;;;;;;;;;;;;5300036;26;19931;-69
2024/04/30 04:56:55;;;;;;;;;;;;;;;;;;5300642;26;19931;-68
2024/04/30 04:59:24;;;;;;;;;;;;;;;;;;5296501;27;19931;-68
2024/04/30 05:01:50;;;;;;;;;;;;;;;;;;5292635;27;20322;-68
2024/04/30 05:04:19;;;;;;;;;;;;;;;;;;5293826;26;19937;-73
2024/04/30 05:06:48;;;;;;;;;;;;;;;;;;5298593;27;20354;-69
2024/04/30 05:09:17;;;;;;;;;;;;;;;;;;5301715;26;19931;-69
2024/04/30 05:11:43;;;;;;;;;;;;;;;;;;5302692;27;19966;-69
2024/04/30 05:14:12;;;;;;;;;;;;;;;;;;5305208;27;19930;-69
2024/04/30 05:16:38;;;;;;;;;;;;;;;;;;5305198;26;19930;-66
2024/04/30 05:19:06;;;;;;;;;;;;;;;;;;5300165;27;20326;-67
2024/04/30 05:21:32;;;;;;;;;;;;;;;;;;5305092;27;19938;-67
2024/04/30 05:24:01;;;;;;;;;;;;;;;;;;5299430;27;20268;-68
2024/04/30 05:26:27;;;;;;;;;;;;;;;;;;5305254;26;20277;-68
2024/04/30 05:28:56;;;;;;;;;;;;;;;;;;5306002;26;19934;-68
2024/04/30 05:31:22;;;;;;;;;;;;;;;;;;5303600;26;19933;-69
2024/04/30 05:33:51;;;;;;;;;;;;;;;;;;5305304;26;19931;-68
2024/04/30 05:36:17;;;;;;;;;;;;;;;;;;5304928;27;19938;-68
2024/04/30 05:38:46;;;;;;;;;;;;;;;;;;5303837;27;20270;-68
2024/04/30 05:41:12;;;;;;;;;;;;;;;;;;5300322;27;19930;-68
2024/04/30 05:43:41;;;;;;;;;;;;;;;;;;5306720;27;19938;-68
2024/04/30 05:46:07;;;;;;;;;;;;;;;;;;5307145;26;19934;-67
2024/04/30 05:48:36;;;;;;;;;;;;;;;;;;5303378;27;19945;-68
2024/04/30 05:51:02;;;;;;;;;;;;;;;;;;5305867;27;20274;-68
2024/04/30 05:53:31;;;;;;;;;;;;;;;;;;5305643;26;19953;-70
2024/04/30 05:55:57;;;;;;;;;;;;;;;;;;5302141;26;19934;-70
2024/04/30 05:58:26;;;;;;;;;;;;;;;;;;5304822;26;19938;-69
2024/04/30 06:00:52;;;;;;;;;;;;;;;;;;5305943;26;19942;-69
2024/04/30 06:03:21;;;;;;;;;;;;;;;;;;5305416;27;19931;-69
2024/04/30 06:05:47;;;;;;;;;;;;;;;;;;5303524;27;20230;-69
2024/04/30 06:08:15;;;;;;;;;;;;;;;;;;5306330;26;19930;-68
2024/04/30 06:10:41;;;;;;;;;;;;;;;;;;5305741;27;19945;-68
2024/04/30 06:13:10;;;;;;;;;;;;;;;;;;5300999;26;20021;-66
2024/04/30 06:15:36;;;;;;;;;;;;;;;;;;5299382;26;19931;-68
2024/04/30 06:18:05;;;;;;;;;;;;;;;;;;5304864;27;19931;-69
2024/04/30 06:20:31;;;;;;;;;;;;;;;;;;5305128;27;20434;-68
2024/04/30 06:23:00;;;;;;;;;;;;;;;;;;5304802;27;19946;-68
2024/04/30 06:25:26;;;;;;;;;;;;;;;;;;5304260;27;19930;-67
2024/04/30 06:27:54;;;;;;;;;;;;;;;;;;5300989;27;19936;-67
2024/04/30 06:30:20;;;;;;;;;;;;;;;;;;5303750;27;19961;-67
2024/04/30 06:32:49;;;;;;;;;;;;;;;;;;5303304;26;20008;-67
2024/04/30 06:35:15;;;;;;;;;;;;;;;;;;5304230;26;19938;-66
2024/04/30 06:37:44;;;;;;;;;;;;;;;;;;5304906;26;19996;-65
2024/04/30 06:40:10;;;;;;;;;;;;;;;;;;5301626;27;19930;-66
2024/04/30 06:42:38;;;;;;;;;;;;;;;;;;5303055;26;20374;-66
2024/04/30 06:45:05;;;;;;;;;;;;;;;;;;5301442;27;19930;-65
2024/04/30 06:47:33;;;;;;;;;;;;;;;;;;5305238;26;19938;-67
2024/04/30 06:49:59;;;;;;;;;;;;;;;;;;5304938;26;19938;-67
2024/04/30 06:52:28;;;;;;;;;;;;;;;;;;5304220;26;19992;-66
2024/04/30 06:54:54;;;;;;;;;;;;;;;;;;5304886;27;19931;-66
2024/04/30 06:57:23;;;;;;;;;;;;;;;;;;5303089;27;19985;-66
2024/04/30 06:59:49;;;;;;;;;;;;;;;;;;5304133;26;19931;-67
2024/04/30 07:02:18;;;;;;;;;;;;;;;;;;5302864;26;19938;-67
2024/04/30 07:04:44;;;;;;;;;;;;;;;;;;5299062;27;19941;-66
2024/04/30 07:07:12;;;;;;;;;;;;;;;;;;5303815;27;20827;-66
2024/04/30 07:09:38;;;;;;;;;;;;;;;;;;5298986;26;19934;-67
2024/04/30 07:12:07;;;;;;;;;;;;;;;;;;5307874;26;19937;-67
2024/04/30 07:14:35;;;;;;;;;;;;;;;;;;5304028;26;20382;-67
2024/04/30 07:17:03;;;;;;;;;;;;;;;;;;5303636;27;19938;-67
2024/04/30 07:19:29;;;;;;;;;;;;;;;;;;5307729;26;19931;-67
2024/04/30 07:21:58;;;;;;;;;;;;;;;;;;5314365;26;20399;-68
2024/04/30 07:24:24;;;;;;;;;;;;;;;;;;5317670;26;19938;-68
2024/04/30 07:26:53;;;;;;;;;;;;;;;;;;5311041;26;19962;-69
2024/04/30 07:29:19;;;;;;;;;;;;;;;;;;5296255;27;20408;-68
2024/04/30 07:31:49;;;;;;;;;;;;;;;;;;5301854;27;19931;-68
2024/04/30 07:34:15;;;;;;;;;;;;;;;;;;5292986;26;19938;-65
2024/04/30 07:36:43;;;;;;;;;;;;;;;;;;5301929;26;19931;-68
2024/04/30 07:39:09;;;;;;;;;;;;;;;;;;5303016;26;19935;-66
2024/04/30 07:41:38;;;;;;;;;;;;;;;;;;5303123;26;20266;-67
2024/04/30 07:44:04;;;;;;;;;;;;;;;;;;5303637;26;19930;-66
2024/04/30 07:46:33;;;;;;;;;;;;;;;;;;5303450;27;20382;-66
2024/04/30 07:48:59;;;;;;;;;;;;;;;;;;5303993;26;19938;-67
2024/04/30 07:51:27;;;;;;;;;;;;;;;;;;5303321;27;19930;-68
2024/04/30 07:53:54;;;;;;;;;;;;;;;;;;5303227;26;19930;-68
2024/04/30 07:56:22;;;;;;;;;;;;;;;;;;5303412;27;19958;-67
2024/04/30 07:58:48;;;;;;;;;;;;;;;;;;5298676;26;19941;-67
2024/04/30 08:01:17;;;;;;;;;;;;;;;;;;5295677;26;20000;-66
2024/04/30 08:03:43;;;;;;;;;;;;;;;;;;5303144;26;19934;-67
2024/04/30 08:06:12;;;;;;;;;;;;;;;;;;5303831;27;19930;-67
2024/04/30 08:08:38;;;;;;;;;;;;;;;;;;5302893;26;19939;-68
2024/04/30 08:11:06;;;;;;;;;;;;;;;;;;5306218;26;19930;-68
2024/04/30 08:13:33;;;;;;;;;;;;;;;;;;5303939;26;20308;-67
2024/04/30 08:16:01;;;;;;;;;;;;;;;;;;5304063;27;20000;-68
2024/04/30 08:18:27;;;;;;;;;;;;;;;;;;5303224;27;19937;-69
2024/04/30 08:20:56;;;;;;;;;;;;;;;;;;5303156;26;19930;-67
2024/04/30 08:23:22;;;;;;;;;;;;;;;;;;5303004;27;20376;-67
2024/04/30 08:25:51;;;;;;;;;;;;;;;;;;5303357;27;20370;-68
2024/04/30 08:28:19;;;;;;;;;;;;;;;;;;5301392;26;19934;-70
2024/04/30 08:30:45;;;;;;;;;;;;;;;;;;5304094;26;19938;-69
2024/04/30 08:33:14;;;;;;;;;;;;;;;;;;5303959;27;19931;-69
2024/04/30 08:35:41;;;;;;;;;;;;;;;;;;5303952;27;19937;-69
2024/04/30 08:38:10;;;;;;;;;;;;;;;;;;5303899;26;19930;-70
2024/04/30 08:40:36;;;;;;;;;;;;;;;;;;5304419;27;19931;-70
2024/04/30 08:43:04;;;;;;;;;;;;;;;;;;5304010;26;19937;-69
2024/04/30 08:45:30;;;;;;;;;;;;;;;;;;5304436;27;19931;-69
2024/04/30 08:47:59;;;;;;;;;;;;;;;;;;5306879;27;19966;-70
2024/04/30 08:50:25;;;;;;;;;;;;;;;;;;5306967;26;20385;-68
2024/04/30 08:52:54;;;;;;;;;;;;;;;;;;5305323;27;19985;-68
2024/04/30 08:55:20;;;;;;;;;;;;;;;;;;5306889;27;20266;-70
2024/04/30 08:57:48;;;;;;;;;;;;;;;;;;5306129;27;19934;-69
2024/04/30 09:00:14;;;;;;;;;;;;;;;;;;5306060;26;20266;-69
2024/04/30 09:02:43;;;;;;;;;;;;;;;;;;5307507;27;19955;-68
2024/04/30 09:05:10;;;;;;;;;;;;;;;;;;5306144;26;20276;-68
2024/04/30 09:07:39;;;;;;;;;;;;;;;;;;5307126;27;19930;-69
2024/04/30 09:10:08;;;;;;;;;;;;;;;;;;5307363;26;19931;-69
2024/04/30 09:12:34;;;;;;;;;;;;;;;;;;5307244;26;20049;-68
2024/04/30 09:15:02;;;;;;;;;;;;;;;;;;5306518;27;19938;-69
2024/04/30 09:17:29;;;;;;;;;;;;;;;;;;5307410;27;19931;-69
2024/04/30 09:19:58;;;;;;;;;;;;;;;;;;5306633;27;19931;-69
2024/04/30 09:22:24;;;;;;;;;;;;;;;;;;5307324;27;19930;-69
2024/04/30 09:24:52;;;;;;;;;;;;;;;;;;5307127;27;19938;-65
2024/04/30 09:27:18;;;;;;;;;;;;;;;;;;5306749;26;19930;-69
2024/04/30 09:29:47;;;;;;;;;;;;;;;;;;5306292;27;20349;-68
2024/04/30 09:32:13;;;;;;;;;;;;;;;;;;5305953;26;19931;-69
2024/04/30 09:34:42;;;;;;;;;;;;;;;;;;5306285;27;20362;-69
2024/04/30 09:37:08;;;;;;;;;;;;;;;;;;5306330;27;20151;-69
2024/04/30 09:39:36;;;;;;;;;;;;;;;;;;5306624;27;19931;-69
2024/04/30 09:42:03;;;;;;;;;;;;;;;;;;5305522;26;19931;-69
2024/04/30 09:44:33;;;;;;;;;;;;;;;;;;5305923;27;19941;-69
2024/04/30 09:46:59;;;;;;;;;;;;;;;;;;5306574;26;20042;-69
2024/04/30 09:49:27;;;;;;;;;;;;;;;;;;5306454;27;19958;-69
2024/04/30 09:51:53;;;;;;;;;;;;;;;;;;5306227;26;19931;-70
2024/04/30 09:54:22;;;;;;;;;;;;;;;;;;5306329;26;19931;-70
2024/04/30 09:56:49;;;;;;;;;;;;;;;;;;5306887;26;19946;-70
2024/04/30 09:59:17;;;;;;;;;;;;;;;;;;5306029;27;19937;-70
2024/04/30 10:01:43;;;;;;;;;;;;;;;;;;5306485;27;19938;-70
2024/04/30 10:04:12;;;;;;;;;;;;;;;;;;5305834;27;20000;-70
2024/04/30 10:06:41;;;;;;;;;;;;;;;;;;5306894;26;19938;-70
2024/04/30 10:09:07;;;;;;;;;;;;;;;;;;5307463;26;19938;-69
2024/04/30 10:11:36;;;;;;;;;;;;;;;;;;5295911;26;19931;-70
2024/04/30 10:14:02;;;;;;;;;;;;;;;;;;5283881;26;19930;-70
2024/04/30 10:16:30;;;;;;;;;;;;;;;;;;5304634;27;19931;-69
2024/04/30 10:18:56;;;;;;;;;;;;;;;;;;5306163;27;19937;-69
2024/04/30 10:21:26;;;;;;;;;;;;;;;;;;5306158;27;19997;-69
2024/04/30 10:23:54;;;;;;;;;;;;;;;;;;5305985;26;19942;-69
2024/04/30 10:26:20;;;;;;;;;;;;;;;;;;5304830;27;20004;-69
2024/04/30 10:28:49;;;;;;;;;;;;;;;;;;5304547;26;19930;-69
2024/04/30 10:31:17;;;;;;;;;;;;;;;;;;5306308;27;19930;-71
2024/04/30 10:33:46;;;;;;;;;;;;;;;;;;5306104;27;19937;-70
2024/04/30 10:36:14;;;;;;;;;;;;;;;;;;5303761;27;19938;-73
2024/04/30 10:38:43;;;;;;;;;;;;;;;;;;5307066;27;19941;-73
2024/04/30 10:41:12;;;;;;;;;;;;;;;;;;5303993;26;19930;-73
2024/04/30 10:43:38;;;;;;;;;;;;;;;;;;5304879;26;20649;-73
2024/04/30 10:46:06;;;;;;;;;;;;;;;;;;5303930;26;20365;-73
2024/04/30 10:48:32;;;;;;;;;;;;;;;;;;5306102;26;19931;-73
2024/04/30 10:51:01;;;;;;;;;;;;;;;;;;5305661;27;20390;-73
2024/04/30 10:53:30;;;;;;;;;;;;;;;;;;5306219;27;19930;-72
2024/04/30 10:55:56;;;;;;;;;;;;;;;;;;5306385;27;19937;-72
2024/04/30 10:58:25;;;;;;;;;;;;;;;;;;5303708;27;19942;-72
2024/04/30 11:00:51;;;;;;;;;;;;;;;;;;5304327;26;20578;-72
2024/04/30 11:03:21;;;;;;;;;;;;;;;;;;5303585;26;20413;-72
2024/04/30 11:05:47;;;;;;;;;;;;;;;;;;5304395;26;20420;-72
2024/04/30 11:08:15;;;;;;;;;;;;;;;;;;5305586;26;19930;-72
2024/04/30 11:10:45;;;;;;;;;;;;;;;;;;5303204;27;19930;-73
2024/04/30 11:13:13;;;;;;;;;;;;;;;;;;5291981;27;19931;-72
2024/04/30 11:15:40;;;;;;;;;;;;;;;;;;5301398;27;19937;-72
2024/04/30 11:18:09;;;;;;;;;;;;;;;;;;5305884;27;19942;-72
2024/04/30 11:20:35;;;;;;;;;;;;;;;;;;5304530;27;19931;-72
2024/04/30 11:23:03;;;;;;;;;;;;;;;;;;5304756;27;20366;-72
2024/04/30 11:25:29;;;;;;;;;;;;;;;;;;5304507;27;19938;-70
2024/04/30 11:27:58;;;;;;;;;;;;;;;;;;5304834;27;20405;-72
2024/04/30 11:30:24;;;;;;;;;;;;;;;;;;5304998;26;19937;-72
2024/04/30 11:32:53;;;;;;;;;;;;;;;;;;5304028;27;20382;-72
2024/04/30 11:35:23;;;;;;;;;;;;;;;;;;5304893;27;20062;-72
2024/04/30 11:37:49;;;;;;;;;;;;;;;;;;5304218;27;19966;-72
2024/04/30 11:40:17;;;;;;;;;;;;;;;;;;5305018;27;20369;-71
2024/04/30 11:42:44;;;;;;;;;;;;;;;;;;5303664;26;19938;-74
2024/04/30 11:45:15;;;;;;;;;;;;;;;;;;5304435;27;19962;-72
2024/04/30 11:47:41;;;;;;;;;;;;;;;;;;5298629;27;20004;-73
2024/04/30 11:50:10;;;;;;;;;;;;;;;;;;5304534;26;19930;-74
2024/04/30 11:52:38;;;;;;;;;;;;;;;;;;5304869;26;19931;-73
2024/04/30 11:55:05;;;;;;;;;;;;;;;;;;5304912;27;20034;-74
2024/04/30 11:57:33;;;;;;;;;;;;;;;;;;5304317;27;20541;-73
2024/04/30 12:00:00;;;;;;;;;;;;;;;;;;5304597;26;19966;-73
2024/04/30 12:02:28;;;;;;;;;;;;;;;;;;5304781;27;19937;-68
2024/04/30 12:04:54;;;;;;;;;;;;;;;;;;5304596;26;19934;-70
2024/04/30 12:07:23;;;;;;;;;;;;;;;;;;5304353;26;19986;-69
2024/04/30 12:09:49;;;;;;;;;;;;;;;;;;5304128;26;19930;-69
2024/04/30 12:12:18;;;;;;;;;;;;;;;;;;5304245;26;19968;-69
2024/04/30 12:14:46;;;;;;;;;;;;;;;;;;5304621;27;19930;-69
2024/04/30 12:17:12;;;;;;;;;;;;;;;;;;5305276;26;19941;-69
2024/04/30 12:19:41;;;;;;;;;;;;;;;;;;5304119;27;19996;-69
2024/04/30 12:22:07;;;;;;;;;;;;;;;;;;5306037;26;19930;-69
2024/04/30 12:24:36;;;;;;;;;;;;;;;;;;5308049;27;20042;-70
2024/04/30 12:27:02;;;;;;;;;;;;;;;;;;5307111;27;19938;-69
2024/04/30 12:29:30;;;;;;;;;;;;;;;;;;5307547;27;19937;-69
2024/04/30 12:31:58;;;;;;;;;;;;;;;;;;5293278;27;19937;-69
2024/04/30 12:34:26;;;;;;;;;;;;;;;;;;5307106;26;19945;-69
2024/04/30 12:36:52;;;;;;;;;;;;;;;;;;5307241;27;19934;-69
2024/04/30 12:39:21;;;;;;;;;;;;;;;;;;5307146;27;19958;-70
2024/04/30 12:41:47;;;;;;;;;;;;;;;;;;5307159;26;19931;-69
2024/04/30 12:44:16;;;;;;;;;;;;;;;;;;5307430;27;19942;-70
2024/04/30 12:46:45;;;;;;;;;;;;;;;;;;5307701;27;19930;-69
2024/04/30 12:49:14;;;;;;;;;;;;;;;;;;5306487;27;19984;-69
2024/04/30 12:51:40;;;;;;;;;;;;;;;;;;5305108;27;19938;-70
2024/04/30 12:54:09;;;;;;;;;;;;;;;;;;5307176;26;19945;-69
2024/04/30 12:56:35;;;;;;;;;;;;;;;;;;5306885;27;19934;-70
2024/04/30 12:59:03;;;;;;;;;;;;;;;;;;5305603;27;19931;-69
2024/04/30 13:01:29;;;;;;;;;;;;;;;;;;5307244;26;19931;-68
2024/04/30 13:03:58;;;;;;;;;;;;;;;;;;5307009;27;19974;-68
2024/04/30 13:06:24;;;;;;;;;;;;;;;;;;5306574;26;19930;-69
2024/04/30 13:08:53;;;;;;;;;;;;;;;;;;5306770;27;19934;-68
2024/04/30 13:11:19;;;;;;;;;;;;;;;;;;5305351;26;19935;-68
2024/04/30 13:13:48;;;;;;;;;;;;;;;;;;5305695;27;19958;-68
2024/04/30 13:16:14;;;;;;;;;;;;;;;;;;5307002;27;19931;-68
2024/04/30 13:18:42;;;;;;;;;;;;;;;;;;5305820;27;19937;-68
2024/04/30 13:21:08;;;;;;;;;;;;;;;;;;5305632;27;19935;-68
2024/04/30 13:23:38;;;;;;;;;;;;;;;;;;5305687;27;19931;-69
2024/04/30 13:26:04;;;;;;;;;;;;;;;;;;5304995;27;19931;-68
2024/04/30 13:28:32;;;;;;;;;;;;;;;;;;5306080;27;19985;-69
2024/04/30 13:30:58;;;;;;;;;;;;;;;;;;5306876;26;19961;-69
2024/04/30 13:33:28;;;;;;;;;;;;;;;;;;5306436;27;20439;-69
2024/04/30 13:35:54;;;;;;;;;;;;;;;;;;5305666;26;20017;-69
2024/04/30 13:38:22;;;;;;;;;;;;;;;;;;5305070;27;19945;-70
2024/04/30 13:40:48;;;;;;;;;;;;;;;;;;5305768;27;19931;-70
2024/04/30 13:43:17;;;;;;;;;;;;;;;;;;5307033;27;20285;-69
2024/04/30 13:45:43;;;;;;;;;;;;;;;;;;5306052;27;19931;-70
2024/04/30 13:48:12;;;;;;;;;;;;;;;;;;5306610;27;19938;-70
2024/04/30 13:50:38;;;;;;;;;;;;;;;;;;5305989;27;19930;-68
2024/04/30 13:53:08;;;;;;;;;;;;;;;;;;5305550;27;19930;-66
2024/04/30 13:55:34;;;;;;;;;;;;;;;;;;5305455;27;19930;-67
2024/04/30 13:58:02;;;;;;;;;;;;;;;;;;5305137;26;20610;-68
2024/04/30 14:00:31;;;;;;;;;;;;;;;;;;5305819;27;20366;-70
2024/04/30 14:02:57;;;;;;;;;;;;;;;;;;5304462;27;19950;-71
2024/04/30 14:05:26;;;;;;;;;;;;;;;;;;5306351;26;19937;-70
2024/04/30 14:07:52;;;;;;;;;;;;;;;;;;5304634;27;19938;-70
2024/04/30 14:10:21;;;;;;;;;;;;;;;;;;5303840;27;19947;-70
2024/04/30 14:12:48;;;;;;;;;;;;;;;;;;5301713;27;20381;-70
2024/04/30 14:15:16;;;;;;;;;;;;;;;;;;5304156;27;19969;-72
2024/04/30 14:17:42;;;;;;;;;;;;;;;;;;5303367;26;19934;-70
2024/04/30 14:20:11;;;;;;;;;;;;;;;;;;5302554;27;19938;-70
2024/04/30 14:22:37;;;;;;;;;;;;;;;;;;5302208;26;19937;-70
2024/04/30 14:25:06;;;;;;;;;;;;;;;;;;5302596;27;20334;-70
2024/04/30 14:27:32;;;;;;;;;;;;;;;;;;5301539;26;19942;-70
2024/04/30 14:30:01;;;;;;;;;;;;;;;;;;5301342;27;19967;-70
2024/04/30 14:32:30;;;;;;;;;;;;;;;;;;5295995;27;20058;-69
2024/04/30 14:34:56;;;;;;;;;;;;;;;;;;5302307;26;20018;-68
2024/04/30 14:37:24;;;;;;;;;;;;;;;;;;5302270;27;19930;-68
2024/04/30 14:39:52;;;;;;;;;;;;;;;;;;5301992;27;19937;-69
2024/04/30 14:42:22;;;;;;;;;;;;;;;;;;5301905;26;20492;-69
2024/04/30 14:44:49;;;;;;;;;;;;;;;;;;5301014;27;19962;-69
2024/04/30 14:47:21;;;;;;;;;;;;;;;;;;5302866;27;19962;-68
2024/04/30 14:49:47;;;;;;;;;;;;;;;;;;5281337;27;20270;-68
2024/04/30 14:52:15;;;;;;;;;;;;;;;;;;5302731;26;20359;-69
2024/04/30 14:54:42;;;;;;;;;;;;;;;;;;5302986;26;19931;-69
2024/04/30 14:57:10;;;;;;;;;;;;;;;;;;5302986;27;19955;-68
2024/04/30 14:59:36;;;;;;;;;;;;;;;;;;5302757;27;20449;-69
2024/04/30 15:02:05;;;;;;;;;;;;;;;;;;5303461;27;19940;-68
2024/04/30 15:04:31;;;;;;;;;;;;;;;;;;5303255;26;20015;-68
2024/04/30 15:07:00;;;;;;;;;;;;;;;;;;5303101;27;19937;-68
2024/04/30 15:09:26;;;;;;;;;;;;;;;;;;5303609;27;20385;-68
2024/04/30 15:11:55;;;;;;;;;;;;;;;;;;5303252;26;19962;-68
2024/04/30 15:14:21;;;;;;;;;;;;;;;;;;5303378;27;19930;-69
2024/04/30 15:16:49;;;;;;;;;;;;;;;;;;5302733;27;19935;-69
2024/04/30 15:19:16;;;;;;;;;;;;;;;;;;5303787;27;19930;-69
2024/04/30 15:21:45;;;;;;;;;;;;;;;;;;5303494;27;20381;-69
2024/04/30 15:24:11;;;;;;;;;;;;;;;;;;5305182;27;20327;-69
2024/04/30 15:26:39;;;;;;;;;;;;;;;;;;5304931;27;19931;-69
2024/04/30 15:29:06;;;;;;;;;;;;;;;;;;5301870;26;19945;-68
2024/04/30 15:31:34;;;;;;;;;;;;;;;;;;5294508;27;19963;-68
2024/04/30 15:34:00;;;;;;;;;;;;;;;;;;5290594;27;19930;-69
2024/04/30 15:36:29;;;;;;;;;;;;;;;;;;5291437;27;20370;-70
2024/04/30 15:38:55;;;;;;;;;;;;;;;;;;5290901;27;19931;-69
2024/04/30 15:41:24;;;;;;;;;;;;;;;;;;5290889;27;19938;-68
2024/04/30 15:43:50;;;;;;;;;;;;;;;;;;5287715;27;20016;-70
2024/04/30 15:46:19;;;;;;;;;;;;;;;;;;5291230;27;19938;-70
2024/04/30 15:48:45;;;;;;;;;;;;;;;;;;5290645;27;19931;-70
2024/04/30 15:51:13;;;;;;;;;;;;;;;;;;5294063;26;20246;-70
2024/04/30 15:53:39;;;;;;;;;;;;;;;;;;5290802;26;19932;-69
2024/04/30 15:56:08;;;;;;;;;;;;;;;;;;5291928;26;19938;-69
2024/04/30 15:58:34;;;;;;;;;;;;;;;;;;5292631;26;20271;-69
2024/04/30 16:01:03;;;;;;;;;;;;;;;;;;5300616;27;19942;-69
2024/04/30 16:03:29;;;;;;;;;;;;;;;;;;5301643;26;19930;-69
2024/04/30 16:05:58;;;;;;;;;;;;;;;;;;5302466;27;20000;-69
2024/04/30 16:08:24;;;;;;;;;;;;;;;;;;5302010;26;19930;-69
2024/04/30 16:10:52;;;;;;;;;;;;;;;;;;5301874;26;20343;-69
2024/04/30 16:13:18;;;;;;;;;;;;;;;;;;5301731;26;19934;-69
2024/04/30 16:15:47;;;;;;;;;;;;;;;;;;5302436;27;19938;-71
2024/04/30 16:18:13;;;;;;;;;;;;;;;;;;5303127;27;19942;-68
2024/04/30 16:20:42;;;;;;;;;;;;;;;;;;5302215;27;19935;-70
2024/04/30 16:23:08;;;;;;;;;;;;;;;;;;5302766;27;19930;-70
2024/04/30 16:25:36;;;;;;;;;;;;;;;;;;5304128;27;20045;-67
2024/04/30 16:28:03;;;;;;;;;;;;;;;;;;5304428;27;19942;-68
2024/04/30 16:30:31;;;;;;;;;;;;;;;;;;5304685;27;20396;-67
2024/04/30 16:32:57;;;;;;;;;;;;;;;;;;5304910;27;20362;-68
2024/04/30 16:35:26;;;;;;;;;;;;;;;;;;5303852;27;19958;-68
2024/04/30 16:37:52;;;;;;;;;;;;;;;;;;5303906;26;20266;-67
2024/04/30 16:40:21;;;;;;;;;;;;;;;;;;5303609;27;19931;-69
2024/04/30 16:42:47;;;;;;;;;;;;;;;;;;5303465;27;20339;-69
2024/04/30 16:45:15;;;;;;;;;;;;;;;;;;5303412;27;20269;-70
2024/04/30 16:47:41;;;;;;;;;;;;;;;;;;5302511;27;20382;-69
2024/04/30 16:50:10;;;;;;;;;;;;;;;;;;5302441;27;20273;-69
2024/04/30 16:52:39;;;;;;;;;;;;;;;;;;5301965;26;19931;-69
2024/04/30 16:55:05;;;;;;;;;;;;;;;;;;5298656;26;19938;-69